AUA143P LOWW-LSZH
Flight info
| Callsign | AUA143P |
|---|---|
| Flight time | 0h 58m |
| Altitude | 30000 |
| Route | SOVIL DCT SITNI DCT BAGSI DCT MATIG DCT TRAUN DCT KONIN L856 NEGRA |
| Aircraft | A20N/M-SDE2E3FGHIRWXY/LB1 |
Departure
| Time | 2026-05-01 13:10 |
|---|---|
| Airport | Vienna International Airport (LOWW) |
Arrival
| Time | 2026-05-01 14:09 |
|---|---|
| Airport | Zürich Airport (LSZH) |
| Time | Latitude | Longitude | Altitude | Speed | Heading |
|---|---|---|---|---|---|
| 2026-05-01 12:28 | 48.11901 | 16.56769 | 608 ft | 0 kts | 205° |
| 2026-05-01 13:07 | 48.11912 | 16.56967 | 608 ft | 12 kts | 116° |
| 2026-05-01 13:07 | 48.11872 | 16.57091 | 608 ft | 14 kts | 116° |
| 2026-05-01 13:07 | 48.11843 | 16.57243 | 608 ft | 15 kts | 111° |
| 2026-05-01 13:08 | 48.11773 | 16.57357 | 608 ft | 15 kts | 161° |
| 2026-05-01 13:08 | 48.11664 | 16.57405 | 608 ft | 16 kts | 165° |
| 2026-05-01 13:08 | 48.11553 | 16.57452 | 608 ft | 16 kts | 166° |
| 2026-05-01 13:08 | 48.11434 | 16.57416 | 608 ft | 18 kts | 206° |
| 2026-05-01 13:09 | 48.11317 | 16.57331 | 608 ft | 18 kts | 205° |
| 2026-05-01 13:09 | 48.11200 | 16.57245 | 608 ft | 18 kts | 207° |
| 2026-05-01 13:09 | 48.11087 | 16.57162 | 608 ft | 14 kts | 209° |
| 2026-05-01 13:09 | 48.11080 | 16.57026 | 608 ft | 17 kts | 296° |
| 2026-05-01 13:10 | 48.11234 | 16.56552 | 608 ft | 90 kts | 296° |
| 2026-05-01 13:10 | 48.11619 | 16.55369 | 609 ft | 159 kts | 296° |
| 2026-05-01 13:10 | 48.11912 | 16.54438 | 762 ft | 178 kts | 296° |
| 2026-05-01 13:10 | 48.12582 | 16.52387 | 1509 ft | 193 kts | 294° |
| 2026-05-01 13:11 | 48.12660 | 16.50422 | 2404 ft | 200 kts | 256° |
| 2026-05-01 13:11 | 48.11887 | 16.48718 | 3143 ft | 208 kts | 229° |
| 2026-05-01 13:11 | 48.10839 | 16.47143 | 3740 ft | 220 kts | 228° |
| 2026-05-01 13:11 | 48.09773 | 16.45429 | 4385 ft | 230 kts | 231° |
| 2026-05-01 13:12 | 48.08785 | 16.43489 | 5011 ft | 243 kts | 237° |
| 2026-05-01 13:12 | 48.07782 | 16.41415 | 5663 ft | 256 kts | 235° |
| 2026-05-01 13:12 | 48.06661 | 16.39224 | 6338 ft | 270 kts | 234° |
| 2026-05-01 13:12 | 48.05496 | 16.36955 | 7034 ft | 283 kts | 234° |
| 2026-05-01 13:13 | 48.04271 | 16.34557 | 7752 ft | 295 kts | 234° |
| 2026-05-01 13:13 | 48.03194 | 16.31901 | 8493 ft | 302 kts | 255° |
| 2026-05-01 13:13 | 48.03037 | 16.28834 | 9357 ft | 298 kts | 279° |
| 2026-05-01 13:13 | 48.03242 | 16.25805 | 10340 ft | 297 kts | 280° |
| 2026-05-01 13:14 | 48.03443 | 16.22712 | 11178 ft | 303 kts | 278° |
| 2026-05-01 13:14 | 48.03542 | 16.19413 | 11755 ft | 318 kts | 276° |
| 2026-05-01 13:14 | 48.03598 | 16.15959 | 12255 ft | 335 kts | 275° |
| 2026-05-01 13:14 | 48.03643 | 16.12402 | 12868 ft | 346 kts | 275° |
| 2026-05-01 13:15 | 48.03688 | 16.08833 | 13618 ft | 351 kts | 276° |
| 2026-05-01 13:15 | 48.03739 | 16.05183 | 14374 ft | 356 kts | 276° |
| 2026-05-01 13:15 | 48.03796 | 16.01462 | 15121 ft | 361 kts | 276° |
| 2026-05-01 13:15 | 48.03854 | 15.97654 | 15869 ft | 366 kts | 276° |
| 2026-05-01 13:16 | 48.03911 | 15.93882 | 16583 ft | 370 kts | 276° |
| 2026-05-01 13:16 | 48.03968 | 15.90007 | 17309 ft | 374 kts | 276° |
| 2026-05-01 13:16 | 48.04025 | 15.86144 | 17986 ft | 379 kts | 276° |
| 2026-05-01 13:17 | 48.04192 | 15.74146 | 19972 ft | 391 kts | 276° |
| 2026-05-01 13:17 | 48.04246 | 15.70044 | 20614 ft | 396 kts | 276° |
| 2026-05-01 13:18 | 48.04352 | 15.61753 | 21917 ft | 403 kts | 276° |
| 2026-05-01 13:18 | 48.04404 | 15.57537 | 22544 ft | 407 kts | 276° |
| 2026-05-01 13:18 | 48.04455 | 15.53301 | 23173 ft | 410 kts | 276° |
| 2026-05-01 13:18 | 48.04505 | 15.49017 | 23795 ft | 414 kts | 276° |
| 2026-05-01 13:19 | 48.04553 | 15.44763 | 24392 ft | 417 kts | 276° |
| 2026-05-01 13:19 | 48.04599 | 15.40402 | 24983 ft | 420 kts | 276° |
| 2026-05-01 13:19 | 48.04713 | 15.31666 | 26408 ft | 417 kts | 276° |
| 2026-05-01 13:20 | 48.04784 | 15.27336 | 27097 ft | 415 kts | 276° |
| 2026-05-01 13:20 | 48.04855 | 15.23030 | 27758 ft | 414 kts | 276° |
| 2026-05-01 13:20 | 48.04922 | 15.18789 | 28398 ft | 412 kts | 277° |
| 2026-05-01 13:21 | 48.05054 | 15.10120 | 29480 ft | 413 kts | 276° |
| 2026-05-01 13:21 | 48.05118 | 15.05805 | 29898 ft | 416 kts | 277° |
| 2026-05-01 13:21 | 48.05180 | 15.01469 | 30259 ft | 419 kts | 277° |
| 2026-05-01 13:21 | 48.05239 | 14.97128 | 30321 ft | 420 kts | 277° |
| 2026-05-01 13:22 | 48.05349 | 14.88409 | 30325 ft | 418 kts | 277° |
| 2026-05-01 13:22 | 48.05449 | 14.79698 | 30325 ft | 417 kts | 276° |
| 2026-05-01 13:23 | 48.05519 | 14.71025 | 30326 ft | 418 kts | 276° |
| 2026-05-01 13:23 | 48.05582 | 14.62251 | 30327 ft | 418 kts | 276° |
| 2026-05-01 13:24 | 48.05638 | 14.53572 | 30326 ft | 418 kts | 276° |
| 2026-05-01 13:25 | 48.05717 | 14.40598 | 30321 ft | 417 kts | 276° |
| 2026-05-01 13:25 | 48.05759 | 14.31846 | 30320 ft | 417 kts | 275° |
| 2026-05-01 13:26 | 48.05794 | 14.23196 | 30320 ft | 417 kts | 275° |
| 2026-05-01 13:26 | 48.05821 | 14.14491 | 30319 ft | 417 kts | 275° |
| 2026-05-01 13:27 | 48.05845 | 14.05830 | 30320 ft | 416 kts | 275° |
| 2026-05-01 13:27 | 48.05867 | 13.92766 | 30312 ft | 416 kts | 275° |
| 2026-05-01 13:28 | 48.05876 | 13.79788 | 30309 ft | 416 kts | 275° |
| 2026-05-01 13:29 | 48.05863 | 13.62562 | 30311 ft | 414 kts | 275° |
| 2026-05-01 13:31 | 48.04372 | 13.36613 | 30302 ft | 417 kts | 267° |
| 2026-05-01 13:32 | 48.02510 | 13.15136 | 30295 ft | 417 kts | 266° |
| 2026-05-01 13:33 | 48.00600 | 12.93432 | 30298 ft | 417 kts | 266° |
| 2026-05-01 13:34 | 47.99063 | 12.76299 | 30298 ft | 415 kts | 266° |
| 2026-05-01 13:35 | 47.97893 | 12.63461 | 30296 ft | 414 kts | 266° |
| 2026-05-01 13:36 | 47.96706 | 12.50593 | 30293 ft | 414 kts | 266° |
| 2026-05-01 13:36 | 47.95510 | 12.37808 | 30294 ft | 413 kts | 266° |
| 2026-05-01 13:37 | 47.94717 | 12.29393 | 30294 ft | 413 kts | 265° |
| 2026-05-01 13:37 | 47.93909 | 12.20880 | 30296 ft | 413 kts | 265° |
| 2026-05-01 13:38 | 47.92690 | 12.08178 | 30298 ft | 412 kts | 265° |
| 2026-05-01 13:39 | 47.91868 | 11.99705 | 30290 ft | 411 kts | 265° |
| 2026-05-01 13:39 | 47.91043 | 11.91265 | 30292 ft | 410 kts | 265° |
| 2026-05-01 13:40 | 47.90217 | 11.82867 | 30287 ft | 410 kts | 265° |
| 2026-05-01 13:40 | 47.89381 | 11.74435 | 30291 ft | 410 kts | 265° |
| 2026-05-01 13:41 | 47.88546 | 11.66072 | 30293 ft | 410 kts | 265° |
| 2026-05-01 13:41 | 47.87703 | 11.57692 | 30284 ft | 410 kts | 265° |
| 2026-05-01 13:42 | 47.86851 | 11.49289 | 30280 ft | 409 kts | 265° |
| 2026-05-01 13:42 | 47.85985 | 11.40841 | 30280 ft | 408 kts | 265° |
| 2026-05-01 13:43 | 47.85123 | 11.32467 | 30286 ft | 408 kts | 264° |
| 2026-05-01 13:43 | 47.84256 | 11.24090 | 30291 ft | 408 kts | 264° |
| 2026-05-01 13:44 | 47.83373 | 11.15628 | 30284 ft | 408 kts | 264° |
| 2026-05-01 13:44 | 47.82496 | 11.07294 | 30285 ft | 407 kts | 264° |
| 2026-05-01 13:45 | 47.81602 | 10.98933 | 30294 ft | 407 kts | 264° |
| 2026-05-01 13:45 | 47.80704 | 10.90602 | 30301 ft | 407 kts | 264° |
| 2026-05-01 13:46 | 47.79802 | 10.82285 | 30305 ft | 407 kts | 264° |
| 2026-05-01 13:46 | 47.78901 | 10.74011 | 30302 ft | 406 kts | 264° |
| 2026-05-01 13:47 | 47.77990 | 10.65699 | 30294 ft | 405 kts | 264° |
| 2026-05-01 13:47 | 47.77076 | 10.57423 | 30295 ft | 406 kts | 264° |
| 2026-05-01 13:48 | 47.76151 | 10.49100 | 30292 ft | 406 kts | 263° |
| 2026-05-01 13:48 | 47.75220 | 10.40809 | 30292 ft | 405 kts | 264° |
| 2026-05-01 13:49 | 47.74517 | 10.32539 | 30291 ft | 403 kts | 269° |
| 2026-05-01 13:49 | 47.74307 | 10.24093 | 30044 ft | 405 kts | 271° |
| 2026-05-01 13:49 | 47.74221 | 10.19980 | 29781 ft | 402 kts | 271° |
| 2026-05-01 13:50 | 47.74131 | 10.15793 | 29515 ft | 400 kts | 271° |
| 2026-05-01 13:50 | 47.74040 | 10.11701 | 29244 ft | 397 kts | 271° |
| 2026-05-01 13:50 | 47.73945 | 10.07595 | 28941 ft | 397 kts | 270° |
| 2026-05-01 13:50 | 47.73846 | 10.03452 | 28577 ft | 397 kts | 270° |
| 2026-05-01 13:51 | 47.73745 | 9.99315 | 28097 ft | 398 kts | 270° |
| 2026-05-01 13:51 | 47.73644 | 9.95255 | 27566 ft | 398 kts | 270° |
| 2026-05-01 13:51 | 47.73541 | 9.91109 | 26997 ft | 399 kts | 270° |
| 2026-05-01 13:51 | 47.73436 | 9.86965 | 26408 ft | 400 kts | 270° |
| 2026-05-01 13:52 | 47.73330 | 9.82837 | 25813 ft | 401 kts | 270° |
| 2026-05-01 13:52 | 47.73222 | 9.78675 | 25196 ft | 402 kts | 270° |
| 2026-05-01 13:52 | 47.73113 | 9.74528 | 24571 ft | 403 kts | 270° |
| 2026-05-01 13:52 | 47.73000 | 9.70353 | 24106 ft | 400 kts | 270° |
| 2026-05-01 13:53 | 47.72888 | 9.66257 | 23656 ft | 396 kts | 269° |
| 2026-05-01 13:53 | 47.72659 | 9.58114 | 22742 ft | 390 kts | 269° |
| 2026-05-01 13:53 | 47.72546 | 9.54133 | 22295 ft | 387 kts | 269° |
| 2026-05-01 13:54 | 47.72432 | 9.50178 | 21848 ft | 384 kts | 269° |
| 2026-05-01 13:54 | 47.72284 | 9.46200 | 21389 ft | 382 kts | 264° |
| 2026-05-01 13:54 | 47.71605 | 9.42369 | 20926 ft | 381 kts | 248° |
| 2026-05-01 13:54 | 47.70271 | 9.39007 | 20482 ft | 379 kts | 233° |
| 2026-05-01 13:55 | 47.68612 | 9.35970 | 20045 ft | 377 kts | 231° |
| 2026-05-01 13:55 | 47.66925 | 9.32990 | 19603 ft | 374 kts | 230° |
| 2026-05-01 13:55 | 47.65242 | 9.29998 | 19159 ft | 372 kts | 230° |
| 2026-05-01 13:55 | 47.63594 | 9.27034 | 18721 ft | 370 kts | 230° |
| 2026-05-01 13:56 | 47.61958 | 9.24072 | 18281 ft | 367 kts | 230° |
| 2026-05-01 13:56 | 47.60397 | 9.21124 | 17829 ft | 365 kts | 236° |
| 2026-05-01 13:56 | 47.59227 | 9.17764 | 17402 ft | 363 kts | 250° |
| 2026-05-01 13:56 | 47.58582 | 9.14171 | 16930 ft | 360 kts | 259° |
| 2026-05-01 13:57 | 47.58149 | 9.10561 | 16538 ft | 357 kts | 261° |
| 2026-05-01 13:57 | 47.57752 | 9.06958 | 16100 ft | 355 kts | 263° |
| 2026-05-01 13:57 | 47.57745 | 9.03354 | 15656 ft | 351 kts | 278° |
| 2026-05-01 13:57 | 47.58350 | 8.99887 | 15259 ft | 347 kts | 291° |
| 2026-05-01 13:58 | 47.59254 | 8.96583 | 14835 ft | 345 kts | 294° |
| 2026-05-01 13:58 | 47.60191 | 8.93308 | 14431 ft | 344 kts | 294° |
| 2026-05-01 13:58 | 47.61116 | 8.90083 | 13972 ft | 343 kts | 294° |
| 2026-05-01 13:58 | 47.62038 | 8.86815 | 13475 ft | 342 kts | 292° |
| 2026-05-01 13:59 | 47.62878 | 8.83552 | 12997 ft | 341 kts | 289° |
| 2026-05-01 13:59 | 47.63199 | 8.80126 | 12468 ft | 341 kts | 264° |
| 2026-05-01 13:59 | 47.62582 | 8.76705 | 11874 ft | 342 kts | 246° |
| 2026-05-01 13:59 | 47.61639 | 8.73491 | 11301 ft | 339 kts | 245° |
| 2026-05-01 14:00 | 47.60710 | 8.70401 | 10597 ft | 323 kts | 245° |
| 2026-05-01 14:00 | 47.59826 | 8.67418 | 9740 ft | 311 kts | 245° |
| 2026-05-01 14:00 | 47.58971 | 8.64539 | 8910 ft | 301 kts | 247° |
| 2026-05-01 14:00 | 47.58502 | 8.61590 | 7992 ft | 296 kts | 270° |
| 2026-05-01 14:01 | 47.58843 | 8.58678 | 7011 ft | 293 kts | 294° |
| 2026-05-01 14:01 | 47.59954 | 8.56215 | 5970 ft | 287 kts | 319° |
| 2026-05-01 14:01 | 47.61499 | 8.54464 | 5130 ft | 277 kts | 328° |
| 2026-05-01 14:01 | 47.63059 | 8.52919 | 4487 ft | 264 kts | 327° |
| 2026-05-01 14:02 | 47.64508 | 8.51341 | 3983 ft | 254 kts | 323° |
| 2026-05-01 14:02 | 47.65807 | 8.49724 | 3940 ft | 237 kts | 321° |
| 2026-05-01 14:02 | 47.66840 | 8.47906 | 3824 ft | 230 kts | 295° |
| 2026-05-01 14:02 | 47.66994 | 8.45617 | 3707 ft | 223 kts | 255° |
| 2026-05-01 14:03 | 47.66339 | 8.43612 | 3634 ft | 212 kts | 237° |
| 2026-05-01 14:03 | 47.65542 | 8.41902 | 3728 ft | 189 kts | 234° |
| 2026-05-01 14:03 | 47.64775 | 8.40392 | 3772 ft | 178 kts | 232° |
| 2026-05-01 14:03 | 47.64004 | 8.38999 | 3714 ft | 172 kts | 229° |
| 2026-05-01 14:04 | 47.63090 | 8.37790 | 3690 ft | 178 kts | 213° |
| 2026-05-01 14:04 | 47.61979 | 8.37019 | 3699 ft | 178 kts | 195° |
| 2026-05-01 14:04 | 47.60763 | 8.36816 | 3716 ft | 175 kts | 169° |
| 2026-05-01 14:04 | 47.59717 | 8.37650 | 3701 ft | 171 kts | 133° |
| 2026-05-01 14:05 | 47.58889 | 8.38922 | 3700 ft | 169 kts | 131° |
| 2026-05-01 14:05 | 47.58065 | 8.40112 | 3644 ft | 164 kts | 134° |
| 2026-05-01 14:05 | 47.57223 | 8.41278 | 3594 ft | 166 kts | 134° |
| 2026-05-01 14:05 | 47.56379 | 8.42449 | 3574 ft | 169 kts | 135° |
| 2026-05-01 14:06 | 47.55484 | 8.43666 | 3387 ft | 174 kts | 135° |
| 2026-05-01 14:06 | 47.54613 | 8.44797 | 3177 ft | 160 kts | 135° |
| 2026-05-01 14:06 | 47.53822 | 8.45884 | 2905 ft | 152 kts | 134° |
| 2026-05-01 14:06 | 47.53067 | 8.46928 | 2617 ft | 148 kts | 134° |
| 2026-05-01 14:07 | 47.52314 | 8.47963 | 2390 ft | 143 kts | 135° |
| 2026-05-01 14:07 | 47.51590 | 8.48952 | 2258 ft | 142 kts | 134° |
| 2026-05-01 14:07 | 47.50878 | 8.49974 | 2103 ft | 143 kts | 135° |
| 2026-05-01 14:08 | 47.49423 | 8.51940 | 1751 ft | 142 kts | 136° |
| 2026-05-01 14:08 | 47.48701 | 8.52935 | 1569 ft | 140 kts | 136° |
| 2026-05-01 14:08 | 47.47981 | 8.53914 | 1410 ft | 137 kts | 136° |
| 2026-05-01 14:08 | 47.47342 | 8.54784 | 1384 ft | 104 kts | 135° |
| 2026-05-01 14:09 | 47.46918 | 8.55363 | 1385 ft | 65 kts | 138° |
| 2026-05-01 14:09 | 47.46624 | 8.55654 | 1386 ft | 47 kts | 163° |
| 2026-05-01 14:09 | 47.46409 | 8.55742 | 1385 ft | 19 kts | 160° |
| 2026-05-01 14:09 | 47.46304 | 8.55855 | 1385 ft | 18 kts | 139° |
| 2026-05-01 14:10 | 47.46210 | 8.55979 | 1385 ft | 15 kts | 143° |
| 2026-05-01 14:10 | 47.46102 | 8.55988 | 1385 ft | 16 kts | 185° |
| 2026-05-01 14:10 | 47.45990 | 8.55969 | 1385 ft | 16 kts | 190° |
| 2026-05-01 14:10 | 47.45879 | 8.55921 | 1385 ft | 16 kts | 201° |
| 2026-05-01 14:11 | 47.45839 | 8.55898 | 1385 ft | 0 kts | 200° |
| 2026-05-01 14:11 | 47.45832 | 8.55894 | 1385 ft | 4 kts | 201° |
| 2026-05-01 14:12 | 47.45767 | 8.55870 | 1386 ft | 11 kts | 187° |
| 2026-05-01 14:12 | 47.45682 | 8.55859 | 1385 ft | 14 kts | 185° |
| 2026-05-01 14:12 | 47.45585 | 8.55844 | 1386 ft | 13 kts | 187° |
| 2026-05-01 14:12 | 47.45501 | 8.55862 | 1386 ft | 8 kts | 153° |
| 2026-05-01 14:13 | 47.45446 | 8.55875 | 1386 ft | 6 kts | 186° |
| 2026-05-01 14:13 | 47.45421 | 8.55871 | 1386 ft | 5 kts | 187° |
| 2026-05-01 14:13 | 47.45408 | 8.55869 | 1386 ft | 0 kts | 185° |